createdAt,value
2019-03-19T00:00:20.586Z,6.90
2019-03-19T00:02:50.298Z,6.50
2019-03-19T00:05:19.694Z,6.20
2019-03-19T00:07:49.326Z,5.95
2019-03-19T00:10:18.910Z,6.37
2019-03-19T00:12:48.493Z,5.33
2019-03-19T00:15:18.113Z,5.37
2019-03-19T00:17:47.495Z,6.03
2019-03-19T00:20:16.906Z,6.05
2019-03-19T00:22:46.580Z,5.60
2019-03-19T00:25:16.026Z,6.85
2019-03-19T00:27:45.611Z,6.25
2019-03-19T00:30:15.117Z,5.80
2019-03-19T00:32:44.615Z,6.37
2019-03-19T00:35:14.210Z,5.72
2019-03-19T00:37:43.826Z,5.70
2019-03-19T00:40:13.491Z,6.40
2019-03-19T00:42:42.881Z,6.58
2019-03-19T00:45:12.748Z,5.67
2019-03-19T00:47:42.241Z,5.83
2019-03-19T00:50:12.350Z,5.60
2019-03-19T00:52:42.004Z,5.97
2019-03-19T00:55:12.409Z,5.80
2019-03-19T00:57:42.151Z,5.58
2019-03-19T01:00:12.413Z,6.33
2019-03-19T01:02:42.177Z,6.00
2019-03-19T01:05:12.022Z,5.07
2019-03-19T01:07:41.419Z,5.25
2019-03-19T01:10:11.898Z,5.00
2019-03-19T01:12:41.370Z,5.17
2019-03-19T01:15:11.504Z,5.60
2019-03-19T01:17:40.887Z,5.65
2019-03-19T01:20:12.432Z,5.57
2019-03-19T01:22:41.819Z,6.30
2019-03-19T01:25:11.262Z,5.57
2019-03-19T01:27:40.803Z,6.03
2019-03-19T01:30:11.414Z,5.40
2019-03-19T01:32:40.755Z,6.22
2019-03-19T01:35:10.561Z,6.17
2019-03-19T01:37:39.912Z,5.55
2019-03-19T01:40:09.402Z,6.42
2019-03-19T01:42:38.959Z,5.83
2019-03-19T01:45:08.917Z,5.62
2019-03-19T01:47:38.385Z,6.33
2019-03-19T01:50:09.419Z,6.58
2019-03-19T01:52:38.953Z,5.55
2019-03-19T01:55:09.894Z,5.72
2019-03-19T01:57:39.163Z,5.73
2019-03-19T02:00:09.842Z,5.80
2019-03-19T02:02:39.211Z,5.72
2019-03-19T02:05:08.586Z,6.33
2019-03-19T02:07:38.086Z,5.67
2019-03-19T02:10:08.090Z,5.78
2019-03-19T02:12:37.446Z,4.80
2019-03-19T02:15:07.724Z,5.77
2019-03-19T02:17:37.149Z,5.57
2019-03-19T02:20:08.212Z,4.70
2019-03-19T02:22:37.552Z,5.10
2019-03-19T02:25:07.980Z,5.70
2019-03-19T02:27:37.389Z,5.53
2019-03-19T02:30:07.655Z,5.33
2019-03-19T02:32:37.231Z,5.53
2019-03-19T02:35:07.202Z,5.63
2019-03-19T02:37:36.575Z,6.13
2019-03-19T02:40:06.452Z,6.00
2019-03-19T02:42:35.875Z,5.40
2019-03-19T02:45:06.144Z,5.77
2019-03-19T02:47:35.709Z,5.67
2019-03-19T02:50:05.708Z,5.70
2019-03-19T02:52:35.055Z,5.60
2019-03-19T02:55:04.779Z,6.37
2019-03-19T02:57:34.503Z,5.57
2019-03-19T03:00:04.588Z,5.93
2019-03-19T03:02:34.077Z,6.00
2019-03-19T03:05:03.585Z,6.33
2019-03-19T03:07:33.091Z,6.33
2019-03-19T03:10:02.619Z,6.30
2019-03-19T03:12:32.202Z,6.67
2019-03-19T03:15:01.731Z,6.00
2019-03-19T03:17:31.309Z,6.40
2019-03-19T03:20:00.715Z,6.70
2019-03-19T03:22:30.305Z,7.50
2019-03-19T03:24:59.815Z,8.43
2019-03-19T03:27:29.539Z,8.47
2019-03-19T03:29:58.968Z,7.70
2019-03-19T03:32:28.456Z,7.90
2019-03-19T03:34:57.960Z,7.67
2019-03-19T03:37:27.532Z,7.57
2019-03-19T03:39:57.054Z,6.90
2019-03-19T03:42:26.658Z,6.90
2019-03-19T03:44:56.313Z,7.20
2019-03-19T03:47:25.726Z,6.93
2019-03-19T03:49:55.212Z,7.20
2019-03-19T03:52:24.748Z,6.50
2019-03-19T03:54:54.464Z,6.43
2019-03-19T03:57:23.919Z,6.57
2019-03-19T03:59:53.471Z,6.40
2019-03-19T04:02:22.928Z,7.00
2019-03-19T04:04:52.392Z,6.50
2019-03-19T04:07:22.231Z,6.60
2019-03-19T04:09:51.689Z,7.03
2019-03-19T04:12:21.050Z,5.87
2019-03-19T04:14:50.745Z,6.80
2019-03-19T04:17:20.177Z,6.33
2019-03-19T04:19:49.767Z,7.20
2019-03-19T04:22:19.241Z,6.77
2019-03-19T04:24:48.824Z,6.50
2019-03-19T04:27:18.327Z,6.97
2019-03-19T04:29:47.810Z,6.87
2019-03-19T04:32:17.506Z,6.50
2019-03-19T04:34:47.054Z,6.20
2019-03-19T04:37:16.658Z,6.10
2019-03-19T04:39:46.069Z,6.40
2019-03-19T04:42:15.648Z,6.50
2019-03-19T04:44:45.126Z,6.37
2019-03-19T04:47:14.827Z,6.37
2019-03-19T04:49:44.234Z,6.80
2019-03-19T04:52:13.762Z,6.57
2019-03-19T04:54:43.343Z,6.87
2019-03-19T04:57:12.867Z,6.23
2019-03-19T04:59:42.409Z,6.73
2019-03-19T05:02:11.907Z,6.83
2019-03-19T05:04:41.615Z,6.80
2019-03-19T05:07:11.002Z,6.60
2019-03-19T05:09:40.488Z,6.50
2019-03-19T05:12:10.187Z,6.77
2019-03-19T05:14:39.757Z,5.92
2019-03-19T05:17:09.363Z,5.92
2019-03-19T05:19:38.793Z,6.22
2019-03-19T05:22:08.299Z,6.20
2019-03-19T05:24:37.969Z,5.90
2019-03-19T05:27:07.647Z,6.20
2019-03-19T05:29:37.018Z,5.92
2019-03-19T05:32:06.564Z,5.70
2019-03-19T05:34:36.144Z,5.60
2019-03-19T05:37:05.958Z,5.40
2019-03-19T05:39:35.441Z,5.03
2019-03-19T05:42:04.949Z,5.40
2019-03-19T05:44:34.390Z,5.70
2019-03-19T05:47:03.861Z,5.53
2019-03-19T05:49:33.420Z,5.03
2019-03-19T05:52:03.002Z,4.53
2019-03-19T05:54:32.587Z,4.83
2019-03-19T05:57:02.118Z,5.53
2019-03-19T05:59:31.969Z,4.87
2019-03-19T06:02:01.319Z,4.90
2019-03-19T06:04:31.146Z,5.37
2019-03-19T06:07:00.492Z,5.27
2019-03-19T06:09:30.394Z,5.10
2019-03-19T06:11:59.726Z,4.67
2019-03-19T06:14:29.102Z,5.10
2019-03-19T06:16:58.438Z,5.07
2019-03-19T06:19:27.791Z,5.30
2019-03-19T06:21:57.498Z,5.53
2019-03-19T06:24:27.106Z,6.33
2019-03-19T06:26:56.531Z,9.90
2019-03-19T06:29:26.086Z,11.23
2019-03-19T06:31:55.724Z,8.97
2019-03-19T06:34:25.104Z,8.47
2019-03-19T06:36:54.728Z,8.00
2019-03-19T06:39:24.194Z,7.27
2019-03-19T06:41:54.236Z,7.40
2019-03-19T06:44:23.600Z,12.40
2019-03-19T06:46:53.032Z,9.87
2019-03-19T06:49:22.500Z,7.00
2019-03-19T06:51:52.302Z,6.60
2019-03-19T06:54:21.659Z,6.97
2019-03-19T06:56:51.149Z,6.23
2019-03-19T06:59:21.454Z,10.47
2019-03-19T07:01:51.010Z,8.63
2019-03-19T07:04:20.626Z,9.17
2019-03-19T07:06:50.180Z,6.43
2019-03-19T07:09:19.708Z,6.43
2019-03-19T07:11:49.511Z,6.27
2019-03-19T07:14:18.864Z,6.13
2019-03-19T07:16:48.554Z,6.77
2019-03-19T07:19:17.997Z,6.30
2019-03-19T07:21:47.553Z,5.53
2019-03-19T07:24:17.155Z,5.23
2019-03-19T07:26:46.651Z,5.67
2019-03-19T07:29:16.219Z,6.17
2019-03-19T07:31:45.875Z,12.53
2019-03-19T07:34:15.295Z,6.20
2019-03-19T07:36:45.142Z,5.80
2019-03-19T07:39:14.523Z,5.90
2019-03-19T07:41:43.924Z,6.23
2019-03-19T07:44:13.442Z,8.83
2019-03-19T07:46:43.033Z,8.10
2019-03-19T07:49:14.502Z,6.37
2019-03-19T07:51:44.039Z,5.73
2019-03-19T07:54:13.628Z,7.50
2019-03-19T07:56:43.364Z,6.70
2019-03-19T07:59:12.841Z,6.87
2019-03-19T08:01:42.645Z,6.27
2019-03-19T08:04:12.169Z,6.20
2019-03-19T08:06:42.008Z,5.30
2019-03-19T08:09:11.454Z,5.87
2019-03-19T08:11:41.527Z,5.47
2019-03-19T08:14:11.031Z,6.67
2019-03-19T08:16:40.730Z,10.23
2019-03-19T08:19:10.095Z,14.20
2019-03-19T08:21:39.447Z,13.93
2019-03-19T08:24:09.046Z,12.17
2019-03-19T08:26:38.523Z,5.80
2019-03-19T08:29:08.090Z,6.10
2019-03-19T08:31:37.681Z,5.43
2019-03-19T08:34:07.234Z,5.90
2019-03-19T08:36:36.740Z,5.63
2019-03-19T08:39:08.375Z,5.93
2019-03-19T08:41:37.719Z,7.53
2019-03-19T08:44:07.299Z,5.80
2019-03-19T08:46:36.859Z,5.80
2019-03-19T08:49:06.392Z,5.50
2019-03-19T08:51:35.991Z,6.57
2019-03-19T08:54:05.810Z,8.10
2019-03-19T08:56:35.134Z,7.00
2019-03-19T08:59:06.072Z,5.87
2019-03-19T09:01:35.799Z,5.77
2019-03-19T09:04:05.608Z,5.00
2019-03-19T09:06:35.152Z,5.93
2019-03-19T09:09:06.855Z,6.53
2019-03-19T09:11:36.669Z,6.30
2019-03-19T09:14:06.368Z,6.27
2019-03-19T09:16:35.682Z,6.00
2019-03-19T09:19:05.227Z,6.27
2019-03-19T09:21:34.607Z,5.57
2019-03-19T09:24:04.001Z,6.53
2019-03-19T09:26:33.589Z,8.70
2019-03-19T09:29:03.029Z,8.13
2019-03-19T09:31:32.539Z,7.43
2019-03-19T09:34:02.100Z,7.40
2019-03-19T09:36:31.795Z,9.53
2019-03-19T09:39:01.324Z,10.90
2019-03-19T09:41:31.104Z,13.90
2019-03-19T09:44:00.564Z,13.03
2019-03-19T09:46:29.963Z,11.83
2019-03-19T09:48:59.442Z,14.30
2019-03-19T09:51:29.314Z,15.57
2019-03-19T09:53:58.795Z,10.17
2019-03-19T09:56:28.240Z,6.90
2019-03-19T09:58:57.626Z,6.97
2019-03-19T10:01:27.192Z,6.00
2019-03-19T10:03:56.798Z,5.20
2019-03-19T10:06:26.290Z,4.93
2019-03-19T10:08:55.860Z,4.00
2019-03-19T10:11:25.348Z,4.70
2019-03-19T10:13:54.764Z,4.60
2019-03-19T10:16:24.327Z,4.53
2019-03-19T10:18:53.986Z,4.40
2019-03-19T10:21:23.499Z,5.07
2019-03-19T10:23:53.306Z,5.17
2019-03-19T10:26:22.722Z,6.40
2019-03-19T10:28:52.501Z,5.53
2019-03-19T10:31:21.851Z,5.43
2019-03-19T10:33:51.784Z,3.60
2019-03-19T10:36:21.202Z,6.47
2019-03-19T10:38:50.611Z,5.83
2019-03-19T10:41:20.153Z,6.60
2019-03-19T10:43:49.529Z,5.57
2019-03-19T10:46:19.036Z,5.67
2019-03-19T10:48:48.738Z,5.30
2019-03-19T10:51:18.175Z,4.07
2019-03-19T10:53:47.616Z,4.17
2019-03-19T10:56:17.145Z,3.87
2019-03-19T10:58:46.699Z,3.67
2019-03-19T11:01:16.233Z,3.50
2019-03-19T11:03:45.707Z,3.20
2019-03-19T11:06:15.349Z,3.07
2019-03-19T11:08:44.970Z,3.70
2019-03-19T11:11:14.384Z,3.60
2019-03-19T11:13:44.095Z,3.33
2019-03-19T11:16:13.848Z,3.13
2019-03-19T11:18:43.302Z,4.03
2019-03-19T11:21:12.686Z,2.63
2019-03-19T11:23:42.178Z,3.60
2019-03-19T11:26:11.841Z,3.80
2019-03-19T11:28:41.229Z,4.10
2019-03-19T11:31:10.752Z,3.77
2019-03-19T11:33:40.259Z,2.53
2019-03-19T11:36:09.874Z,3.10
2019-03-19T11:38:39.365Z,2.67
2019-03-19T11:41:09.154Z,2.77
2019-03-19T11:43:39.689Z,2.40
2019-03-19T11:46:09.082Z,2.40
2019-03-19T11:48:38.551Z,2.30
2019-03-19T11:51:08.096Z,2.50
2019-03-19T11:53:37.758Z,2.20
2019-03-19T11:56:10.026Z,2.17
2019-03-19T11:58:39.568Z,2.50
2019-03-19T12:01:09.271Z,2.20
2019-03-19T12:03:38.804Z,2.50
2019-03-19T12:06:08.329Z,2.47
2019-03-19T12:08:37.719Z,2.07
2019-03-19T12:11:07.283Z,2.47
2019-03-19T12:13:36.769Z,2.47
2019-03-19T12:16:06.330Z,2.10
2019-03-19T12:18:35.992Z,2.30
2019-03-19T12:21:05.481Z,2.53
2019-03-19T12:23:35.066Z,2.17
2019-03-19T12:26:04.815Z,2.70
2019-03-19T12:28:39.559Z,2.57
2019-03-19T12:31:05.895Z,2.53
2019-03-19T12:33:40.934Z,2.77
2019-03-19T12:36:06.851Z,2.70
2019-03-19T12:38:36.478Z,2.70
2019-03-19T12:41:06.011Z,2.50
2019-03-19T12:43:35.467Z,2.50
2019-03-19T12:46:05.035Z,2.20
2019-03-19T12:48:34.430Z,2.23
2019-03-19T12:51:04.284Z,2.50
2019-03-19T12:53:33.655Z,2.97
2019-03-19T12:56:03.559Z,2.37
2019-03-19T12:58:33.121Z,2.17
2019-03-19T13:01:02.594Z,2.00
2019-03-19T13:03:32.035Z,2.07
2019-03-19T13:06:01.560Z,2.20
2019-03-19T13:08:30.847Z,2.03
2019-03-19T13:11:00.283Z,2.60
2019-03-19T13:13:29.883Z,1.80
2019-03-19T13:15:59.616Z,2.00
2019-03-19T13:18:29.068Z,2.07
2019-03-19T13:20:58.646Z,1.70
2019-03-19T13:23:28.269Z,2.40
2019-03-19T13:25:57.676Z,2.73
2019-03-19T13:28:27.140Z,3.10
2019-03-19T13:30:56.676Z,2.80
2019-03-19T13:33:26.428Z,2.87
2019-03-19T13:35:55.796Z,2.90
2019-03-19T13:38:25.327Z,2.87
2019-03-19T13:40:55.070Z,2.97
2019-03-19T13:43:24.407Z,2.40
2019-03-19T13:45:53.945Z,2.40
2019-03-19T13:48:23.439Z,2.90
2019-03-19T13:50:53.188Z,4.80
2019-03-19T13:53:22.572Z,3.30
2019-03-19T13:55:52.287Z,2.87
2019-03-19T13:58:21.991Z,2.77
2019-03-19T14:00:55.575Z,4.33
2019-03-19T14:03:22.811Z,3.70
2019-03-19T14:05:52.313Z,2.73
2019-03-19T14:08:21.753Z,3.00
2019-03-19T14:10:51.379Z,1.80
2019-03-19T14:13:20.884Z,2.37
2019-03-19T14:15:50.467Z,2.83
2019-03-19T14:18:20.035Z,2.77
2019-03-19T14:20:49.407Z,2.70
2019-03-19T14:23:18.873Z,2.67
2019-03-19T14:25:48.456Z,2.57
2019-03-19T14:28:19.670Z,3.00
2019-03-19T14:30:49.454Z,2.53
2019-03-19T14:33:19.151Z,2.70
2019-03-19T14:35:48.699Z,2.33
2019-03-19T14:38:18.362Z,2.33
2019-03-19T14:40:48.004Z,2.47
2019-03-19T14:43:17.503Z,2.50
2019-03-19T14:45:47.023Z,2.80
2019-03-19T14:48:16.627Z,2.30
2019-03-19T14:50:46.034Z,2.00
2019-03-19T14:53:15.759Z,2.10
2019-03-19T14:55:45.172Z,2.10
2019-03-19T14:58:15.146Z,2.37
2019-03-19T15:00:44.523Z,2.90
2019-03-19T15:03:14.226Z,2.43
2019-03-19T15:05:43.641Z,2.60
2019-03-19T15:08:13.078Z,2.53
2019-03-19T15:10:42.640Z,2.87
2019-03-19T15:13:12.261Z,2.90
2019-03-19T15:15:41.903Z,2.03
2019-03-19T15:18:11.375Z,2.10
2019-03-19T15:20:40.831Z,1.97
2019-03-19T15:23:10.307Z,2.03
2019-03-19T15:25:39.804Z,2.07
2019-03-19T15:28:09.457Z,1.83
2019-03-19T15:30:39.006Z,2.17
2019-03-19T15:33:08.440Z,1.93
2019-03-19T15:35:38.034Z,2.00
2019-03-19T15:38:07.539Z,2.10
2019-03-19T15:40:37.043Z,1.90
2019-03-19T15:43:06.683Z,1.83
2019-03-19T15:45:36.329Z,1.77
2019-03-19T15:48:05.993Z,1.93
2019-03-19T15:50:35.493Z,1.60
2019-03-19T15:53:05.127Z,2.03
2019-03-19T15:55:34.652Z,2.50
2019-03-19T15:58:04.052Z,1.80
2019-03-19T16:00:33.662Z,2.07
2019-03-19T16:03:03.207Z,2.40
2019-03-19T16:05:32.702Z,1.83
2019-03-19T16:08:02.143Z,2.40
2019-03-19T16:10:31.679Z,2.53
2019-03-19T16:13:01.111Z,1.70
2019-03-19T16:15:30.751Z,1.63
2019-03-19T16:18:00.335Z,2.00
2019-03-19T16:20:30.149Z,1.90
2019-03-19T16:22:59.715Z,1.60
2019-03-19T16:25:29.400Z,2.10
2019-03-19T16:27:59.247Z,1.80
2019-03-19T16:30:28.842Z,2.20
2019-03-19T16:32:58.411Z,1.67
2019-03-19T16:35:27.897Z,1.53
2019-03-19T16:37:57.311Z,1.90
2019-03-19T16:40:26.871Z,2.30
2019-03-19T16:42:56.638Z,1.70
2019-03-19T16:45:26.341Z,1.70
2019-03-19T16:47:56.036Z,1.70
2019-03-19T16:50:25.868Z,2.07
2019-03-19T16:52:55.611Z,2.10
2019-03-19T16:55:25.354Z,1.80
2019-03-19T16:57:54.803Z,1.93
2019-03-19T17:00:24.526Z,2.40
2019-03-19T17:02:54.056Z,2.53
2019-03-19T17:05:24.043Z,2.20
2019-03-19T17:07:53.838Z,1.87
2019-03-19T17:10:23.567Z,1.80
2019-03-19T17:12:52.939Z,1.97
2019-03-19T17:15:22.407Z,2.07
2019-03-19T17:17:52.098Z,2.20
2019-03-19T17:20:21.563Z,1.77
2019-03-19T17:22:51.357Z,2.30
2019-03-19T17:25:21.031Z,2.07
2019-03-19T17:27:50.663Z,1.97
2019-03-19T17:30:22.040Z,2.23
2019-03-19T17:32:52.353Z,2.40
2019-03-19T17:35:23.271Z,1.90
2019-03-19T17:37:53.092Z,1.60
2019-03-19T17:40:22.930Z,1.90
2019-03-19T17:42:52.592Z,2.10
2019-03-19T17:45:22.076Z,1.90
2019-03-19T17:47:51.674Z,1.67
2019-03-19T17:50:21.506Z,2.07
2019-03-19T17:52:51.569Z,1.60
2019-03-19T17:55:21.306Z,1.70
2019-03-19T17:57:50.825Z,2.07
2019-03-19T18:00:25.281Z,1.80
2019-03-19T18:02:55.015Z,2.00
2019-03-19T18:05:24.799Z,1.80
2019-03-19T18:07:54.709Z,1.80
2019-03-19T18:10:24.709Z,2.00
2019-03-19T18:12:54.580Z,1.83
2019-03-19T18:15:24.178Z,1.70
2019-03-19T18:17:53.827Z,2.17
2019-03-19T18:20:23.546Z,2.03
2019-03-19T18:22:53.565Z,2.50
2019-03-19T18:25:23.698Z,2.33
2019-03-19T18:27:53.202Z,2.23
2019-03-19T18:30:23.475Z,2.43
2019-03-19T18:32:53.086Z,2.40
2019-03-19T18:35:22.537Z,2.23
2019-03-19T18:37:52.252Z,1.90
2019-03-19T18:40:21.986Z,1.77
2019-03-19T18:42:51.833Z,1.87
2019-03-19T18:45:21.563Z,2.53
2019-03-19T18:47:51.140Z,2.03
2019-03-19T18:50:20.891Z,2.10
2019-03-19T18:52:50.674Z,2.10
2019-03-19T18:55:20.648Z,2.03
2019-03-19T18:57:50.636Z,2.33
2019-03-19T19:00:20.462Z,2.30
2019-03-19T19:02:51.154Z,2.70
2019-03-19T19:05:21.216Z,2.57
2019-03-19T19:07:51.004Z,2.93
2019-03-19T19:10:21.538Z,2.80
2019-03-19T19:12:51.692Z,2.60
2019-03-19T19:15:21.443Z,2.67
2019-03-19T19:17:51.174Z,2.73
2019-03-19T19:20:21.275Z,2.97
2019-03-19T19:22:51.131Z,2.73
2019-03-19T19:25:20.918Z,2.52
2019-03-19T19:27:50.833Z,2.70
2019-03-19T19:30:20.771Z,2.43
2019-03-19T19:33:00.951Z,2.70
2019-03-19T19:35:21.879Z,3.00
2019-03-19T19:37:51.836Z,3.63
2019-03-19T19:40:22.031Z,3.65
2019-03-19T19:42:51.906Z,3.97
2019-03-19T19:45:21.729Z,3.95
2019-03-19T19:47:51.593Z,3.87
2019-03-19T19:50:21.574Z,3.42
2019-03-19T19:52:51.377Z,3.30
2019-03-19T19:55:20.957Z,2.52
2019-03-19T19:57:50.739Z,3.47
2019-03-19T20:00:21.115Z,3.20
2019-03-19T20:02:51.231Z,3.62
2019-03-19T20:05:21.133Z,3.90
2019-03-19T20:07:50.794Z,3.27
2019-03-19T20:10:20.784Z,3.27
2019-03-19T20:12:50.773Z,3.52
2019-03-19T20:15:20.605Z,3.02
2019-03-19T20:17:50.317Z,3.58
2019-03-19T20:20:20.233Z,3.87
2019-03-19T20:22:50.058Z,4.47
2019-03-19T20:25:19.909Z,5.12
2019-03-19T20:27:49.663Z,4.97
2019-03-19T20:30:20.033Z,4.45
2019-03-19T20:32:49.853Z,4.17
2019-03-19T20:35:19.605Z,4.35
2019-03-19T20:37:49.410Z,4.55
2019-03-19T20:40:19.768Z,4.05
2019-03-19T20:42:49.820Z,4.10
2019-03-19T20:45:19.729Z,4.08
2019-03-19T20:47:49.626Z,4.25
2019-03-19T20:50:21.866Z,4.65
2019-03-19T20:52:51.434Z,4.22
2019-03-19T20:55:21.373Z,3.92
2019-03-19T20:57:51.614Z,4.65
2019-03-19T21:00:21.801Z,4.60
2019-03-19T21:02:51.537Z,4.25
2019-03-19T21:05:21.499Z,4.55
2019-03-19T21:07:51.372Z,4.67
2019-03-19T21:10:21.639Z,4.25
2019-03-19T21:12:51.493Z,4.30
2019-03-19T21:15:22.747Z,4.35
2019-03-19T21:17:52.552Z,4.87
2019-03-19T21:20:22.243Z,4.35
2019-03-19T21:22:51.840Z,5.50
2019-03-19T21:25:21.366Z,4.58
2019-03-19T21:27:50.904Z,5.37
2019-03-19T21:30:20.616Z,4.60
2019-03-19T21:32:50.464Z,5.05
2019-03-19T21:35:23.794Z,4.55
2019-03-19T21:37:53.649Z,4.83
2019-03-19T21:40:23.204Z,5.12
2019-03-19T21:42:52.727Z,5.20
2019-03-19T21:45:22.275Z,4.40
2019-03-19T21:47:51.891Z,4.87
2019-03-19T21:50:21.545Z,4.65
2019-03-19T21:52:51.002Z,4.58
2019-03-19T21:55:20.429Z,5.53
2019-03-19T21:57:50.337Z,5.12
2019-03-19T22:00:19.912Z,5.00
2019-03-19T22:02:49.986Z,5.33
2019-03-19T22:05:19.540Z,4.90
2019-03-19T22:07:49.392Z,5.87
2019-03-19T22:10:19.219Z,5.65
2019-03-19T22:12:49.685Z,5.72
2019-03-19T22:15:19.455Z,5.42
2019-03-19T22:17:49.654Z,4.85
2019-03-19T22:20:19.289Z,5.22
2019-03-19T22:22:49.165Z,5.53
2019-03-19T22:25:18.731Z,5.03
2019-03-19T22:27:48.123Z,5.17
2019-03-19T22:30:17.618Z,5.60
2019-03-19T22:32:47.287Z,5.35
2019-03-19T22:35:16.927Z,5.20
2019-03-19T22:37:46.323Z,6.40
2019-03-19T22:40:16.354Z,5.15
2019-03-19T22:42:46.024Z,5.17
2019-03-19T22:45:15.823Z,5.70
2019-03-19T22:47:45.359Z,5.65
2019-03-19T22:50:15.198Z,5.72
2019-03-19T22:52:44.951Z,5.42
2019-03-19T22:55:14.304Z,5.78
2019-03-19T22:57:43.881Z,5.80
2019-03-19T23:00:18.749Z,5.80
2019-03-19T23:02:48.520Z,5.85
2019-03-19T23:05:18.112Z,5.72
2019-03-19T23:07:47.522Z,6.12
2019-03-19T23:10:17.128Z,6.22
2019-03-19T23:12:46.635Z,5.55
2019-03-19T23:15:16.195Z,5.65
2019-03-19T23:17:45.654Z,6.00
2019-03-19T23:20:15.475Z,5.90
2019-03-19T23:22:44.877Z,6.95
2019-03-19T23:25:14.333Z,6.47
2019-03-19T23:27:43.969Z,6.28
2019-03-19T23:30:13.534Z,5.92
2019-03-19T23:32:43.066Z,6.12
2019-03-19T23:35:12.528Z,6.42
2019-03-19T23:37:42.034Z,6.53
2019-03-19T23:40:11.783Z,7.03
2019-03-19T23:42:41.215Z,6.67
2019-03-19T23:45:11.470Z,5.97
2019-03-19T23:47:41.019Z,6.12
2019-03-19T23:50:11.619Z,5.50
2019-03-19T23:52:41.241Z,6.03
2019-03-19T23:55:10.906Z,6.70
2019-03-19T23:57:40.380Z,7.35
